Latest Weather Observations for Mount Keith

IDW60801

Issued at 2:02 pm WST Sunday 2 August 2015 (issued every 30 minutes, with the page automatically refreshed every 10 minutes)

About weather observations | Map of weather stations | Latest weather observations for WA | Other Formats
Station Details ID: 512019 Name: MOUNT KEITH Lat: -27.29 Lon: 120.55 Height: 542.33 m
Data from the previous 72 hours. | See also: Recent months for locations in Western Australia
Date/Time
WST
Temp
°C
App
Temp
°C
Dew
Point
Rel
Hum
%
Delta-T
°C
Wind Press
QNH
hPa
Press
MSL
hPa
Rain
since 9 am
mm
Dir
 
Spd
km/h
Gust
km/h
Spd
kts
Gust
kts
02/02:00pm 14.5 9.2 6.8 60 3.8 SE 24 33 13 18 1027.8 1027.0 0.0
02/01:30pm 14.1 8.7 6.5 60 3.7 SE 24 35 13 19 1027.8 1027.0 0.0
02/01:00pm 14.2 8.9 6.6 60 3.8 SE 24 33 13 18 1027.9 1027.2 0.0
02/12:30pm 14.5 9.6 7.1 61 3.7 ESE 22 30 12 16 1028.0 1027.3 0.0
02/12:00pm 13.7 8.0 6.8 63 3.4 ESE 26 32 14 17 1028.3 1027.6 0.0
02/11:30am 13.5 8.3 7.1 65 3.2 ESE 24 35 13 19 1028.4 1027.7 0.0
02/11:00am 13.0 7.7 6.8 66 3.1 ESE 24 32 13 17 1028.6 1027.9 0.0
02/10:30am 12.8 6.8 7.0 68 2.9 ESE 28 37 15 20 1028.6 1027.9 0.0
02/10:00am 12.7 8.0 7.8 72 2.5 ESE 22 32 12 17 1028.7 1028.0 0.0
02/09:30am 12.4 7.7 7.9 74 2.3 SE 22 32 12 17 1028.6 1027.9 0.0
02/09:04am 12.3 7.3 8.2 76 2.1 ESE 24 32 13 17 1028.3 1027.6 0.0
02/09:00am 12.6 7.4 8.7 77 2.0 ESE 26 35 14 19 1028.3 1027.6 0.0
02/08:30am 11.4 6.1 8.6 83 1.4 SE 26 32 14 17 1027.9 1027.2 0.0
02/08:00am 10.6 5.4 8.9 89 0.9 SE 26 37 14 20 1027.6 1026.8 0.0
02/07:30am 10.3 5.6 9.2 93 0.6 SE 24 37 13 20 1027.2 1026.4 0.0
02/07:00am 10.4 6.5 9.5 94 0.5 SE 20 28 11 15 1026.6 1025.9 0.0
02/06:38am 10.3 6.0 9.4 94 0.5 SE 22 33 12 18 1026.3 1025.6 0.0
02/06:30am 10.4 6.6 9.8 96 0.3 SE 20 30 11 16 1026.1 1025.3 0.0
02/06:24am 10.3 6.5 9.7 96 0.3 SE 20 30 11 16 1026.1 1025.3 0.0
02/06:00am 10.6 6.8 9.8 95 0.4 SE 20 28 11 15 1025.7 1024.9 0.0
02/05:30am 10.7 6.1 9.8 94 0.5 SE 24 32 13 17 1025.3 1024.5 0.0
02/05:29am 10.7 6.1 9.8 94 0.5 SE 24 32 13 17 1025.2 1024.4 0.0
02/05:14am 10.8 7.1 10.0 95 0.4 SE 20 30 11 16 1025.0 1024.2 0.0
02/05:00am 10.8 7.1 10.0 95 0.4 SE 20 30 11 16 1024.9 1024.1 0.0
02/04:59am 10.8 6.7 10.0 95 0.4 SE 22 32 12 17 1024.9 1024.1 0.0
02/04:51am 10.9 6.4 10.1 95 0.4 SE 24 35 13 19 1024.7 1024.0 0.0
02/04:30am 10.9 7.3 10.4 97 0.3 SSE 20 26 11 14 1024.6 1023.8 0.0
02/04:09am 11.1 7.5 10.6 97 0.3 SE 20 28 11 15 1024.4 1023.6 0.0
02/04:05am 11.1 7.5 10.5 96 0.3 SE 20 28 11 15 1024.4 1023.6 0.0
02/04:01am 11.2 7.6 10.6 96 0.3 SE 20 28 11 15 1024.4 1023.6 0.0
02/04:00am 11.2 7.6 10.6 96 0.3 SE 20 28 11 15 1024.4 1023.6 0.0
02/03:42am 11.3 7.9 10.7 96 0.3 SE 19 26 10 14 1024.3 1023.5 0.0
02/03:31am 11.4 8.0 10.6 95 0.4 SE 19 24 10 13 1024.3 1023.5 0.0
02/03:30am 11.4 8.0 10.6 95 0.4 SE 19 24 10 13 1024.3 1023.5 0.0
02/03:27am 11.4 8.0 10.6 95 0.4 SE 19 24 10 13 1024.3 1023.5 0.0
02/03:00am 11.6 7.4 11.0 96 0.3 SSE 24 32 13 17 1024.1 1023.3 0.0
02/02:52am 11.8 8.3 10.9 94 0.5 SE 20 30 11 16 1024.0 1023.2 0.0
02/02:30am 12.1 8.1 10.3 89 1.0 SE 22 33 12 18 1023.9 1023.1 0.0
02/02:26am 12.7 9.1 10.4 86 1.2 SE 20 24 11 13 1023.8 1023.0 0.0
02/02:00am 13.1 10.0 10.3 83 1.5 SE 17 24 9 13 1023.8 1023.0 0.0
02/01:30am 13.2 8.7 10.2 82 1.6 SE 24 32 13 17 1023.7 1022.9 0.0
02/01:29am 13.2 8.7 10.2 82 1.6 SE 24 32 13 17 1023.7 1022.9 0.0
02/01:00am 13.2 9.1 10.0 81 1.7 SE 22 32 12 17 1023.8 1023.0 0.0
02/12:30am 13.4 9.4 10.4 82 1.6 SE 22 35 12 19 1023.6 1022.8 0.0
02/12:00am 13.4 9.1 10.6 83 1.5 SE 24 32 13 17 1023.5 1022.7 0.0
 
Date/Time
WST
Temp
°C
App
Temp
°C
Dew
Point
Rel
Hum
%
Delta-T
°C
Wind Press
QNH
hPa
Press
MSL
hPa
Rain
since 9 am
mm
Dir
 
Spd
km/h
Gust
km/h
Spd
kts
Gust
kts
01/11:42pm 13.5 8.8 10.7 83 1.5 SSE 26 32 14 17 1023.4 1022.6 0.0
01/11:30pm 13.7 9.8 10.7 82 1.6 SSE 22 32 12 17 1023.4 1022.6 0.0
01/11:00pm 14.4 10.7 10.0 75 2.3 SSE 20 26 11 14 1023.3 1022.5 0.0
01/10:30pm 15.2 12.3 9.6 69 3.0 SSE 15 20 8 11 1023.2 1022.4 0.0
01/10:00pm 15.6 12.7 9.5 67 3.2 S 15 19 8 10 1022.8 1022.0 0.0
01/09:30pm 15.9 12.5 9.3 65 3.5 S 17 24 9 13 1022.7 1021.9 0.0
01/09:00pm 16.0 12.6 9.2 64 3.6 S 17 22 9 12 1022.3 1021.5 0.0
01/08:30pm 16.3 12.9 9.0 62 3.9 S 17 20 9 11 1022.2 1021.4 0.0
01/08:00pm 16.7 14.0 9.1 61 4.0 S 13 20 7 11 1022.0 1021.2 0.0
01/07:30pm 16.9 14.2 9.1 60 4.2 S 13 17 7 9 1021.6 1020.8 0.0
01/07:00pm 17.0 13.9 8.9 59 4.3 S 15 20 8 11 1021.1 1020.2 0.0
01/06:30pm 17.3 14.8 8.4 56 4.7 S 11 15 6 8 1020.6 1019.8 0.0
01/06:00pm 17.7 14.8 8.3 54 4.9 SSW 13 19 7 10 1020.1 1019.3 0.0
01/05:30pm 18.1 14.5 8.4 53 5.1 SSW 17 20 9 11 1019.7 1018.8 0.0
01/05:00pm 18.7 14.6 7.8 49 5.7 SSW 19 24 10 13 1019.4 1018.5 0.0
01/04:30pm 19.2 15.2 8.2 49 5.8 SW 19 24 10 13 1018.8 1018.0 0.0
01/04:00pm 20.0 15.4 6.7 42 6.9 WSW 20 28 11 15 1018.4 1017.6 0.0
01/03:30pm 20.0 15.1 7.1 43 6.7 WSW 22 30 12 16 1018.2 1017.3 0.0
01/03:00pm 19.9 15.6 7.9 46 6.3 WSW 20 28 11 15 1017.9 1017.0 0.0
01/02:30pm 19.4 15.3 7.8 47 6.1 WSW 19 26 10 14 1017.8 1016.9 0.0
01/02:00pm 20.1 16.1 8.1 46 6.4 W 19 26 10 14 1017.8 1016.9 0.0
01/01:30pm 19.5 15.4 8.5 49 5.9 W 20 32 11 17 1017.9 1017.0 0.0
01/01:00pm 19.4 16.0 9.3 52 5.5 W 17 30 9 16 1018.2 1017.3 0.0
01/12:30pm 18.0 13.5 10.1 60 4.3 WSW 24 37 13 20 1018.5 1017.7 0.0
01/12:00pm 17.5 14.0 10.1 62 4.0 WSW 19 28 10 15 1018.8 1018.0 0.0
01/11:30am 17.7 13.9 9.8 60 4.3 W 20 32 11 17 1019.0 1018.1 0.0
01/11:00am 17.4 12.8 9.6 60 4.2 W 24 32 13 17 1019.2 1018.3 0.0
01/10:30am 16.3 12.1 9.9 66 3.4 W 22 30 12 16 1019.4 1018.5 0.0
01/10:00am 15.7 12.4 11.5 76 2.3 W 20 28 11 15 1019.5 1018.6 0.0
01/09:38am 15.1 11.7 11.3 78 2.1 W 20 28 11 15 1019.3 1018.4 0.0
01/09:30am 15.1 11.5 11.7 80 1.9 W 22 32 12 17 1019.2 1018.3 0.0
01/09:00am 14.9 12.0 12.4 85 1.4 W 19 24 10 13 1019.0 1018.1 2.0
01/08:30am 14.0 12.7 12.6 91 0.8 WNW 11 15 6 8 1018.5 1017.7 2.0
01/08:00am 13.7 12.6 13.1 96 0.3 WSW 11 13 6 7 1018.3 1017.5 2.0
01/07:35am 13.7 13.5 12.9 95 0.5 W 6 9 3 5 1017.9 1017.5 2.0
01/07:30am 13.6 13.3 12.8 95 0.4 W 6 7 3 4 1017.8 1017.4 2.0
01/07:00am 13.3 12.8 12.7 96 0.3 W 7 7 4 4 1017.4 1016.9 2.0
01/06:44am 13.5 13.0 12.7 95 0.4 W 7 9 4 5 1017.1 1016.6 2.0
01/06:30am 13.8 13.4 13.0 95 0.5 W 7 9 4 5 1017.1 1016.6 2.0
01/06:17am 13.8 13.4 13.0 95 0.5 WSW 7 9 4 5 1016.8 1016.4 2.0
01/06:00am 14.2 12.7 13.2 94 0.6 SW 13 17 7 9 1016.7 1016.3 2.0
01/05:30am 14.4 13.8 13.6 95 0.5 WSW 9 13 5 7 1016.6 1016.2 2.0
01/05:28am 14.5 14.0 13.7 95 0.5 WSW 9 11 5 6 1016.5 1016.1 2.0
01/05:16am 14.5 13.6 13.7 95 0.5 WSW 11 15 6 8 1016.4 1016.0 2.0
01/05:00am 15.0 13.8 14.0 94 0.6 WSW 13 17 7 9 1016.3 1015.9 2.0
01/04:54am 15.0 14.3 14.2 95 0.5 W 11 17 6 9 1016.4 1016.0 2.0
01/04:30am 15.1 14.3 14.0 93 0.6 NW 11 15 6 8 1016.1 1015.7 2.0
01/04:00am 14.7 14.2 13.9 95 0.5 N 9 13 5 7 1015.9 1015.4 2.0
01/03:30am 14.7 14.2 13.7 94 0.6 NNE 9 13 5 7 1015.9 1015.4 2.0
01/03:00am 14.7 14.7 13.7 94 0.6 ENE 6 7 3 4 1016.0 1015.5 2.0
01/02:30am 14.7 15.8 13.6 93 0.6 CALM 0 0 0 0 1016.3 1015.9 2.0
01/02:16am 14.6 14.4 13.6 94 0.6 E 7 15 4 8 1016.2 1015.8 2.0
01/02:06am 14.6 14.4 13.5 93 0.6 SE 7 9 4 5 1016.3 1015.9 2.0
01/02:00am 14.7 14.4 13.4 92 0.7 SSE 7 9 4 5 1016.5 1016.1 1.6
01/01:30am 15.4 15.0 13.1 86 1.3 SE 7 11 4 6 1016.7 1016.3 0.0
01/01:00am 15.8 14.5 12.5 81 1.9 SE 11 13 6 7 1016.5 1016.1 0.0
01/12:30am 15.9 14.6 12.5 80 1.9 S 11 15 6 8 1016.7 1016.3 0.0
01/12:00am 15.9 14.6 12.6 81 1.9 S 11 13 6 7 1016.7 1016.3 0.0
 
Date/Time
WST
Temp
°C
App
Temp
°C
Dew
Point
Rel
Hum
%
Delta-T
°C
Wind Press
QNH
hPa
Press
MSL
hPa
Rain
since 9 am
mm
Dir
 
Spd
km/h
Gust
km/h
Spd
kts
Gust
kts
31/11:30pm 15.8 13.4 12.5 81 1.9 S 17 20 9 11 1017.1 1016.6 0.0
31/11:00pm 15.8 13.4 12.7 82 1.8 S 17 22 9 12 1016.7 1016.3 0.0
31/10:30pm 16.0 13.2 12.7 81 1.9 SSW 19 24 10 13 1016.6 1016.2 0.0
31/10:00pm 16.2 13.3 12.9 81 1.9 SSW 20 26 11 14 1016.5 1016.1 0.0
31/09:30pm 16.5 12.0 12.7 78 2.2 SSW 28 44 15 24 1015.9 1015.4 0.0
31/09:00pm 17.7 11.9 12.8 73 2.8 SSW 35 46 19 25 1015.4 1014.9 0.0
31/08:47pm 20.8 17.4 11.4 55 5.3 SW 20 46 11 25 1014.8 1014.4 0.0
31/08:30pm 22.9 18.8 8.6 40 7.8 WSW 20 28 11 15 1014.5 1014.1 0.0
31/08:00pm 22.7 19.9 6.9 36 8.4 NW 11 13 6 7 1014.0 1013.5 0.0
31/07:30pm 22.9 20.0 6.6 35 8.6 NNW 11 15 6 8 1013.7 1013.2 0.0
31/07:00pm 23.4 20.4 6.2 33 9.0 NNW 11 15 6 8 1013.5 1013.0 0.0
31/06:30pm 24.2 21.6 6.0 31 9.6 NW 9 11 5 6 1013.3 1012.8 0.0
31/06:00pm 25.5 21.8 6.2 29 10.2 NNW 15 22 8 12 1012.9 1012.5 0.0
31/05:30pm 26.2 22.1 6.3 28 10.6 NNW 17 24 9 13 1012.6 1012.1 0.0
31/05:00pm 26.9 22.1 5.8 26 11.2 NNW 20 33 11 18 1012.7 1012.2 0.0
31/04:30pm 27.2 20.9 5.5 25 11.5 NNW 28 43 15 23 1012.6 1012.1 0.0
31/04:00pm 28.2 21.9 5.7 24 12.0 NNW 28 43 15 23 1012.5 1012.0 0.0
31/03:30pm 28.4 22.5 5.9 24 12.1 NNW 26 39 14 21 1012.6 1012.1 0.0
31/03:00pm 28.7 23.2 6.1 24 12.2 NNW 24 37 13 20 1012.7 1012.2 0.0
31/02:30pm 28.9 23.1 6.3 24 12.2 NW 26 39 14 21 1012.8 1012.3 0.0
31/02:00pm 28.6 22.9 6.7 25 11.9 NNW 26 41 14 22 1013.2 1012.7 0.0
31/01:30pm 28.3 22.5 6.4 25 11.8 NNW 26 39 14 21 1013.5 1013.0 0.0
31/01:00pm 28.2 22.5 6.9 26 11.6 NNW 26 39 14 21 1014.2 1013.7 0.0
31/12:30pm 28.6 23.0 7.2 26 11.8 NNW 26 35 14 19 1014.8 1014.4 0.0
31/12:00pm 27.6 21.6 6.9 27 11.2 NNW 28 39 15 21 1015.5 1015.0 0.0
31/11:30am 27.1 21.8 7.0 28 10.9 NNW 24 35 13 19 1016.0 1015.5 0.0
31/11:00am 26.3 21.0 6.9 29 10.5 NNW 24 33 13 18 1016.5 1016.1 0.0
31/10:30am 25.6 20.8 7.2 31 9.9 N 22 33 12 18 1017.1 1016.6 0.0
31/10:00am 25.0 20.2 7.2 32 9.6 NNW 22 30 12 16 1017.5 1017.0 0.0
31/09:30am 23.8 20.7 7.4 35 8.8 NNW 13 20 7 11 1017.9 1017.5 0.0
31/09:00am 21.9 18.0 7.3 39 7.7 NNW 17 22 9 12 1018.0 1017.6 0.0
31/08:30am 19.9 16.4 7.3 44 6.6 NNW 15 20 8 11 1017.9 1017.5 0.0
31/08:00am 17.3 16.7 7.6 53 5.0 CALM 0 7 0 4 1017.7 1017.3 0.0
31/07:58am 17.0 16.5 7.9 55 4.7 CALM 0 7 0 4 1017.7 1017.3 0.0
31/07:30am 13.9 13.0 7.7 66 3.2 NW 2 6 1 3 1017.4 1016.9 0.0
31/07:28am 13.6 12.7 7.6 67 3.0 NW 2 6 1 3 1017.4 1016.9 0.0
31/07:00am 11.4 10.3 6.7 73 2.3 N 2 7 1 4 1017.4 1016.9 0.0
31/06:30am 11.3 10.6 7.0 75 2.1 CALM 0 0 0 0 1017.5 1017.0 0.0
31/06:00am 11.1 9.2 6.8 75 2.1 NNE 6 7 3 4 1017.4 1016.9 0.0
31/05:30am 11.4 9.4 7.3 76 2.0 NE 7 9 4 5 1017.5 1017.0 0.0
31/05:00am 11.6 9.7 7.7 77 1.9 NE 7 9 4 5 1017.5 1017.0 0.0
31/04:30am 11.2 9.2 7.3 77 1.9 ENE 7 9 4 5 1017.5 1017.0 0.0
31/04:00am 11.8 11.2 7.5 75 2.1 CALM 0 0 0 0 1017.9 1017.5 0.0
31/03:30am 13.0 11.9 8.5 74 2.3 N 4 6 2 3 1018.2 1017.8 0.0
31/03:00am 13.2 11.6 8.7 74 2.3 NNE 7 7 4 4 1018.4 1018.0 0.0
31/02:30am 12.7 11.0 8.2 74 2.3 NNE 7 9 4 5 1018.7 1018.3 0.0
31/02:00am 13.5 11.9 8.8 73 2.4 NNE 7 9 4 5 1019.1 1018.6 0.0
31/01:30am 13.8 13.4 8.4 70 2.8 CALM 0 0 0 0 1019.4 1019.0 0.0
31/01:00am 14.3 14.0 8.7 69 2.9 CALM 0 0 0 0 1019.7 1019.3 0.0
31/12:30am 15.5 14.1 9.0 65 3.4 ESE 6 7 3 4 1020.0 1019.6 0.0
31/12:00am 16.1 14.1 8.8 62 3.8 SSE 9 11 5 6 1020.3 1019.9 0.0
 
Date/Time
WST
Temp
°C
App
Temp
°C
Dew
Point
Rel
Hum
%
Delta-T
°C
Wind Press
QNH
hPa
Press
MSL
hPa
Rain
since 9 am
mm
Dir
 
Spd
km/h
Gust
km/h
Spd
kts
Gust
kts
30/11:30pm 15.7 13.5 8.0 60 4.0 SE 9 11 5 6 1020.5 1020.1 0.0
30/11:00pm 16.5 14.8 7.7 56 4.5 S 6 9 3 5 1020.8 1020.5 0.0
30/10:30pm 16.0 14.3 7.7 58 4.3 NW 6 7 3 4 1021.1 1020.7 0.0
30/10:00pm 16.4 14.6 7.9 57 4.4 WNW 7 9 4 5 1021.2 1020.8 0.0
30/09:30pm 16.7 16.2 7.9 56 4.6 CALM 0 0 0 0 1021.5 1021.1 0.0
30/09:00pm 16.9 16.6 8.6 58 4.4 CALM 0 0 0 0 1021.6 1021.2 0.0
30/08:30pm 17.6 17.2 8.2 54 4.9 CALM 0 0 0 0 1021.6 1021.2 0.0
30/08:00pm 19.0 17.5 8.4 50 5.6 SW 6 7 3 4 1021.4 1021.0 0.0
30/07:30pm 19.2 17.8 8.8 51 5.6 WNW 6 9 3 5 1021.3 1020.9 0.0
30/07:00pm 20.8 19.2 8.1 44 6.8 WSW 6 7 3 4 1021.1 1020.7 0.0
30/06:30pm 22.1 21.7 8.2 41 7.5 CALM 0 0 0 0 1021.0 1020.6 0.0
30/06:00pm 23.6 22.4 8.1 37 8.4 NW 4 6 2 3 1020.7 1020.3 0.0
30/05:30pm 25.1 23.3 8.1 34 9.3 NNW 7 11 4 6 1020.4 1020.0 0.0
30/05:00pm 26.3 23.8 8.3 32 9.9 NW 11 15 6 8 1020.3 1019.9 0.0
30/04:30pm 27.1 23.7 7.5 29 10.7 NW 15 20 8 11 1020.1 1019.7 0.0
30/04:00pm 27.4 24.2 8.3 30 10.6 NNW 15 26 8 14 1020.1 1019.7 0.0
30/03:30pm 27.7 24.9 8.6 30 10.7 NW 13 20 7 11 1020.2 1019.8 0.0
30/03:00pm 27.2 23.7 8.6 31 10.4 NNW 17 26 9 14 1020.3 1019.9 0.0
30/02:30pm 27.4 24.7 8.8 31 10.4 NNW 13 24 7 13 1020.4 1020.0 0.0

Other Formats:

Comma delimited format used in spreadsheet applications
http://www.bom.gov.au/fwo/IDW60801/IDW60801.99434.axf

JavaScript Object Notation format (JSON) in row-major order
http://www.bom.gov.au/fwo/IDW60801/IDW60801.99434.json